Time;durP1;ratioP1;P1;durP2;ratioP2;P2;SDS_P1;SDS_P2;PMS_P1;PMS_P2;Temp;Humidity;BMP_temperature;BMP_pressure;BME280_temperature;BME280_humidity;BME280_pressure;Samples;Min_cycle;Max_cycle;Signal;HPM_P1;HPM_P2
2023/10/13 00:01:34;;;;;;;149.45;63.05;;;15.80;99.90;;;;;;4965346;28;20049;-78
2023/10/13 00:04:05;;;;;;;158.75;62.45;;;15.80;99.90;;;;;;5013681;28;20070;-77
2023/10/13 00:06:31;;;;;;;133.55;60.60;;;15.80;99.90;;;;;;4979731;28;20039;-79
2023/10/13 00:08:57;;;;;;;108.88;54.50;;;15.80;99.90;;;;;;4978019;28;20529;-78
2023/10/13 00:11:22;;;;;;;111.07;54.92;;;15.80;99.90;;;;;;4957828;28;20038;-79
2023/10/13 00:13:52;;;;;;;147.02;60.67;;;15.90;99.90;;;;;;4997175;28;20513;-78
2023/10/13 00:16:21;;;;;;;126.80;58.50;;;15.90;99.90;;;;;;5013398;28;20050;-78
2023/10/13 00:18:48;;;;;;;117.53;55.00;;;15.90;99.90;;;;;;5013390;28;20061;-79
2023/10/13 00:21:15;;;;;;;90.60;48.05;;;15.90;99.90;;;;;;5013500;28;20033;-78
2023/10/13 00:23:53;;;;;;;82.90;45.88;;;15.90;99.90;;;;;;5013342;28;20042;-78
2023/10/13 00:26:28;;;;;;;97.78;48.47;;;15.90;99.90;;;;;;4996916;28;20525;-77
2023/10/13 00:29:01;;;;;;;94.72;49.90;;;16.00;99.90;;;;;;4997611;28;20079;-75
2023/10/13 00:31:33;;;;;;;76.10;44.83;;;16.00;99.90;;;;;;5013128;28;20041;-77
2023/10/13 00:34:09;;;;;;;92.88;47.72;;;16.00;99.90;;;;;;4997555;28;20060;-77
2023/10/13 00:36:35;;;;;;;109.50;50.92;;;16.00;99.90;;;;;;4996065;28;20048;-76
2023/10/13 00:39:03;;;;;;;109.45;52.13;;;16.00;99.90;;;;;;5012761;28;20100;-76
2023/10/13 00:44:16;;;;;;;96.10;48.03;;;16.00;99.90;;;;;;4998780;28;20085;-76
2023/10/13 00:46:44;;;;;;;110.35;52.75;;;16.00;99.90;;;;;;4980633;28;20088;-76
2023/10/13 00:49:10;;;;;;;108.18;50.90;;;16.00;99.90;;;;;;5012586;28;20071;-76
2023/10/13 00:51:40;;;;;;;104.90;49.38;;;16.00;99.90;;;;;;4996624;28;20057;-76
2023/10/13 00:54:11;;;;;;;88.53;48.95;;;16.00;99.90;;;;;;5012410;28;20473;-75
2023/10/13 00:56:46;;;;;;;96.88;48.90;;;16.00;99.90;;;;;;4996158;28;20041;-75
2023/10/13 00:59:14;;;;;;;93.05;49.83;;;16.00;99.90;;;;;;5012158;28;20463;-75
2023/10/13 01:01:42;;;;;;;98.50;50.78;;;16.10;99.90;;;;;;5012344;28;20046;-75
2023/10/13 01:04:11;;;;;;;113.13;52.40;;;16.00;99.90;;;;;;4996421;28;20050;-75
2023/10/13 01:06:38;;;;;;;111.43;52.45;;;16.00;99.90;;;;;;4980405;28;20262;-75
2023/10/13 01:11:43;;;;;;;101.38;50.72;;;16.00;99.90;;;;;;5011845;28;20412;-75
2023/10/13 01:14:15;;;;;;;105.57;51.25;;;16.10;99.90;;;;;;5010819;28;20041;-75
2023/10/13 01:16:43;;;;;;;116.25;53.90;;;16.00;99.90;;;;;;4977151;28;20034;-76
2023/10/13 01:19:13;;;;;;;115.65;54.20;;;16.10;99.90;;;;;;4980322;28;20107;-75
2023/10/13 01:21:44;;;;;;;124.93;56.13;;;16.00;99.90;;;;;;5012080;28;20053;-76
2023/10/13 01:24:13;;;;;;;115.20;54.00;;;16.00;99.90;;;;;;5011295;28;20635;-76
2023/10/13 01:26:39;;;;;;;116.95;53.63;;;16.00;99.90;;;;;;5012482;28;20053;-76
2023/10/13 01:29:14;;;;;;;90.28;49.22;;;16.10;99.90;;;;;;5011845;28;20034;-77
2023/10/13 01:31:47;;;;;;;103.05;51.15;;;16.10;99.90;;;;;;5011970;28;20045;-76
2023/10/13 01:34:21;;;;;;;113.50;53.25;;;16.10;99.90;;;;;;5011774;28;20085;-76
2023/10/13 01:37:05;;;;;;;101.53;50.83;;;16.10;99.90;;;;;;4995869;28;20080;-78
2023/10/13 01:39:31;;;;;;;84.75;46.63;;;16.10;99.90;;;;;;4980039;28;20037;-77
2023/10/13 01:41:56;;;;;;;92.57;47.90;;;16.10;99.90;;;;;;4995275;28;20049;-76
2023/10/13 01:44:27;;;;;;;107.03;51.13;;;16.10;99.90;;;;;;5011871;28;20040;-77
2023/10/13 01:46:54;;;;;;;122.15;53.35;;;16.10;99.90;;;;;;4995208;28;20145;-77
2023/10/13 01:49:22;;;;;;;96.22;48.35;;;16.10;99.90;;;;;;5011869;28;20100;-77
2023/10/13 01:51:48;;;;;;;101.30;48.00;;;16.10;99.90;;;;;;4995803;28;20042;-77
2023/10/13 01:54:15;;;;;;;104.93;49.33;;;16.10;99.90;;;;;;4978812;28;20555;-78
2023/10/13 01:56:44;;;;;;;113.00;47.78;;;16.10;99.90;;;;;;5011510;28;20045;-78
2023/10/13 01:59:13;;;;;;;81.78;42.53;;;16.00;99.90;;;;;;5011680;28;20048;-78
2023/10/13 02:01:41;;;;;;;81.05;43.75;;;16.10;99.90;;;;;;5011610;28;20076;-78
2023/10/13 02:04:10;;;;;;;80.57;42.55;;;16.10;99.90;;;;;;4994624;28;20397;-77
2023/10/13 02:06:36;;;;;;;99.57;47.65;;;16.10;99.90;;;;;;5011312;28;20152;-77
2023/10/13 02:09:12;;;;;;;87.53;42.65;;;16.10;99.90;;;;;;4994867;28;20088;-77
2023/10/13 02:11:45;;;;;;;82.60;42.70;;;16.10;99.90;;;;;;4979153;28;20041;-77
2023/10/13 02:14:13;;;;;;;69.72;40.42;;;16.00;99.90;;;;;;5011471;28;20060;-77
2023/10/13 02:16:39;;;;;;;79.25;39.90;;;16.10;99.90;;;;;;4994771;28;20049;-76
2023/10/13 02:19:05;;;;;;;66.55;36.92;;;16.10;99.90;;;;;;4994760;28;20042;-76
2023/10/13 02:21:39;;;;;;;75.18;39.35;;;16.10;99.90;;;;;;5011437;28;20099;-76
2023/10/13 02:24:17;;;;;;;82.65;39.70;;;16.10;99.90;;;;;;4994686;28;20041;-76
2023/10/13 02:26:44;;;;;;;85.68;39.78;;;16.10;99.90;;;;;;5010966;28;20085;-76
2023/10/13 02:29:13;;;;;;;73.93;38.90;;;16.00;99.90;;;;;;4994692;28;20045;-76
2023/10/13 02:31:54;;;;;;;59.58;34.95;;;16.10;99.90;;;;;;5011102;28;20057;-77
2023/10/13 02:34:22;;;;;;;82.55;40.90;;;16.10;99.90;;;;;;4994648;28;20117;-76
2023/10/13 02:36:48;;;;;;;83.45;40.75;;;16.00;99.90;;;;;;4995040;28;20042;-75
2023/10/13 02:39:24;;;;;;;75.38;38.53;;;16.00;99.90;;;;;;4994531;28;20053;-75
2023/10/13 02:41:50;;;;;;;60.70;37.15;;;16.00;99.90;;;;;;4994307;28;20045;-76
2023/10/13 02:44:33;;;;;;;74.20;40.05;;;16.00;99.90;;;;;;4994656;28;20042;-71
2023/10/13 02:46:59;;;;;;;;;;;16.00;99.90;;;;;;5011487;28;20042;-72
2023/10/13 02:49:33;;;;;;;62.22;34.67;;;16.00;99.90;;;;;;5010571;28;20016;-72
2023/10/13 02:52:05;;;;;;;59.58;35.63;;;16.00;99.90;;;;;;4994628;28;20045;-72
2023/10/13 02:54:31;;;;;;;92.93;40.13;;;16.00;99.90;;;;;;4995208;28;20037;-72
2023/10/13 02:56:57;;;;;;;55.78;33.13;;;16.00;99.90;;;;;;4994649;28;20074;-72
2023/10/13 02:59:40;;;;;;;56.55;33.88;;;16.10;99.90;;;;;;4994406;28;20037;-72
2023/10/13 03:04:59;;;;;;;64.78;36.25;;;16.00;99.90;;;;;;5010669;28;20527;-72
2023/10/13 03:07:28;;;;;;;54.70;33.90;;;16.00;99.90;;;;;;4964390;28;20041;-71
2023/10/13 03:10:00;;;;;;;56.58;33.50;;;16.10;99.90;;;;;;4994066;28;20052;-72
2023/10/13 03:12:32;;;;;;;63.58;36.00;;;16.00;99.90;;;;;;4994575;28;20119;-71
2023/10/13 03:15:12;;;;;;;57.72;33.55;;;16.10;99.90;;;;;;4994882;28;20046;-71
2023/10/13 03:17:43;;;;;;;79.65;39.53;;;16.00;99.90;;;;;;4993809;28;20049;-71
2023/10/13 03:20:14;;;;;;;59.10;34.20;;;16.00;99.90;;;;;;5000166;28;20092;-71
2023/10/13 03:22:39;;;;;;;85.35;39.03;;;16.10;99.90;;;;;;5014031;28;20038;-71
2023/10/13 03:25:08;;;;;;;83.97;38.08;;;16.00;99.90;;;;;;5014396;28;20080;-71
2023/10/13 03:28:01;;;;;;;67.90;35.75;;;16.00;99.90;;;;;;4998267;28;20440;-71
2023/10/13 03:30:38;;;;;;;69.68;38.35;;;16.00;99.90;;;;;;4972801;28;20103;-72
2023/10/13 03:33:25;;;;;;;79.97;37.70;;;16.00;99.90;;;;;;4999208;28;20501;-72
2023/10/13 03:35:54;;;;;;;62.92;35.63;;;16.00;99.90;;;;;;5013822;28;20489;-72
2023/10/13 03:38:20;;;;;;;69.35;36.63;;;16.00;99.90;;;;;;4981897;28;20515;-72
2023/10/13 03:40:48;;;;;;;85.25;40.67;;;16.00;99.90;;;;;;4981522;28;20030;-72
2023/10/13 03:43:21;;;;;;;72.63;39.20;;;16.00;99.90;;;;;;4981674;28;20460;-72
2023/10/13 03:46:00;;;;;;;75.93;38.75;;;16.00;99.90;;;;;;5013684;28;20045;-71
2023/10/13 03:51:06;;;;;;;64.97;37.22;;;16.00;99.90;;;;;;5013887;28;20460;-72
2023/10/13 03:53:54;;;;;;;69.50;38.30;;;16.10;99.90;;;;;;5013812;28;20034;-72
2023/10/13 03:56:28;;;;;;;66.90;37.92;;;16.00;99.90;;;;;;4982474;28;20073;-72
2023/10/13 03:59:00;;;;;;;67.55;38.97;;;16.00;99.90;;;;;;4997243;28;20053;-73
2023/10/13 04:01:34;;;;;;;82.45;39.80;;;16.00;99.90;;;;;;5013651;28;20088;-72
2023/10/13 04:04:10;;;;;;;69.88;39.65;;;16.00;99.90;;;;;;4998564;28;20064;-71
2023/10/13 04:17:25;;;;;;;61.78;35.17;;;16.00;99.90;;;;;;5010999;28;20054;-72
2023/10/13 04:41:42;;;;;;;100.32;41.08;;;16.00;99.90;;;;;;5009486;28;20037;-72
2023/10/13 04:57:34;;;;;;;64.75;33.50;;;15.90;99.90;;;;;;5012560;28;20046;-73
2023/10/13 05:05:21;;;;;;;77.45;34.47;;;15.90;99.90;;;;;;5012630;28;20056;-73
2023/10/13 06:29:53;;;;;;;30.15;18.20;;;15.80;99.90;;;;;;5003365;28;20049;-75
2023/10/13 06:32:19;;;;;;;37.33;20.10;;;15.80;99.90;;;;;;4994542;28;20053;-75
2023/10/13 06:34:46;;;;;;;40.10;19.42;;;15.80;99.90;;;;;;4994341;28;20108;-75
2023/10/13 06:37:25;;;;;;;22.08;14.77;;;15.80;99.90;;;;;;4994521;28;20038;-74
2023/10/13 06:40:19;;;;;;;26.08;16.52;;;15.80;99.90;;;;;;5000920;28;20505;-74
2023/10/13 06:42:44;;;;;;;21.27;13.23;;;15.80;99.90;;;;;;4997693;28;20080;-72
2023/10/13 06:45:16;;;;;;;19.23;12.95;;;15.80;99.90;;;;;;4978234;28;20077;-73
2023/10/13 06:47:45;;;;;;;20.73;14.00;;;15.80;99.90;;;;;;4994123;28;20041;-72
2023/10/13 06:50:24;;;;;;;23.02;15.23;;;15.90;99.90;;;;;;4994622;28;20046;-74
2023/10/13 06:52:50;;;;;;;20.27;14.23;;;15.90;99.90;;;;;;4995730;28;20044;-73
2023/10/13 06:55:17;;;;;;;31.15;16.25;;;15.90;99.90;;;;;;5011024;28;20077;-74
2023/10/13 06:57:46;;;;;;;23.73;15.63;;;15.90;99.90;;;;;;4981717;28;20045;-74
2023/10/13 07:00:19;;;;;;;24.65;15.73;;;15.90;99.90;;;;;;5014641;28;20081;-84
2023/10/13 07:02:52;;;;;;;25.10;16.20;;;16.00;99.90;;;;;;4999558;28;20084;-84
2023/10/13 07:05:19;;;;;;;22.73;15.05;;;16.00;99.90;;;;;;5014757;28;20073;-85
2023/10/13 07:07:45;;;;;;;16.25;12.82;;;16.10;99.90;;;;;;5014592;28;20046;-81
2023/10/13 07:10:12;;;;;;;19.95;12.43;;;16.10;99.90;;;;;;5014446;28;20057;-83
2023/10/13 07:12:43;;;;;;;16.30;11.52;;;16.20;99.90;;;;;;5014983;28;20057;-83
2023/10/13 07:17:44;;;;;;;21.05;10.57;;;16.20;99.90;;;;;;4984399;28;20053;-78
2023/10/13 07:20:23;;;;;;;15.10;8.75;;;16.20;99.90;;;;;;4981674;28;20489;-80
2023/10/13 07:23:06;;;;;;;18.15;10.82;;;16.20;99.90;;;;;;5014912;28;20033;-85
2023/10/13 07:25:33;;;;;;;20.17;10.00;;;16.30;99.90;;;;;;5014300;28;20034;-81
2023/10/13 07:28:08;;;;;;;14.82;9.10;;;16.30;99.90;;;;;;5014646;28;20409;-80
2023/10/13 07:33:19;;;;;;;15.32;10.10;;;16.20;99.90;;;;;;5013495;28;20042;-79
2023/10/13 07:36:11;;;;;;;15.40;9.88;;;16.20;99.90;;;;;;4996926;28;20042;-79
2023/10/13 07:38:37;;;;;;;18.23;10.88;;;16.30;99.90;;;;;;5014303;28;20559;-82
2023/10/13 07:41:09;;;;;;;22.38;12.50;;;16.20;99.90;;;;;;4997378;28;20038;-80
2023/10/13 07:43:39;;;;;;;22.50;12.48;;;16.30;99.90;;;;;;4995589;28;20042;-80
2023/10/13 07:46:12;;;;;;;20.10;12.57;;;16.30;99.90;;;;;;4968479;28;20099;-77
2023/10/13 07:48:40;;;;;;;21.92;13.20;;;16.30;99.90;;;;;;4998560;28;20101;-81
2023/10/13 07:51:11;;;;;;;21.73;13.90;;;16.30;99.90;;;;;;5013902;28;20096;-79
2023/10/13 07:53:40;;;;;;;20.80;12.17;;;16.30;99.90;;;;;;4997669;28;20068;-80
2023/10/13 07:56:08;;;;;;;26.60;11.32;;;16.30;99.90;;;;;;4979567;28;20151;-80
2023/10/13 07:58:47;;;;;;;27.25;13.10;;;16.30;99.90;;;;;;4981403;28;20120;-78
2023/10/13 08:01:17;;;;;;;20.65;11.88;;;16.30;99.90;;;;;;4995919;28;20044;-78
2023/10/13 08:03:44;;;;;;;20.20;12.43;;;16.30;99.90;;;;;;4981776;28;20041;-79
2023/10/13 08:08:40;;;;;;;29.70;14.50;;;16.40;99.90;;;;;;4997024;28;20070;-78
2023/10/13 08:11:11;;;;;;;22.70;11.45;;;16.40;99.90;;;;;;4996629;28;20049;-82
2023/10/13 08:13:46;;;;;;;24.70;12.07;;;16.40;99.90;;;;;;5013669;28;20137;-82
2023/10/13 08:16:22;;;;;;;22.55;12.43;;;16.40;99.90;;;;;;5013251;28;20057;-83
2023/10/13 08:18:49;;;;;;;22.63;10.73;;;16.40;99.90;;;;;;4979088;28;20397;-83
2023/10/13 08:21:25;;;;;;;20.98;11.60;;;16.40;99.90;;;;;;4992770;28;20041;-82
2023/10/13 08:34:38;;;;;;;23.67;12.80;;;16.50;99.90;;;;;;5013081;28;20517;-84
2023/10/13 09:07:00;;;;;;;25.45;14.82;;;17.00;99.90;;;;;;4998069;28;20037;-87
2023/10/13 09:09:34;;;;;;;21.77;15.00;;;17.00;99.90;;;;;;4982012;28;20045;-86
2023/10/13 09:12:10;;;;;;;26.63;16.55;;;17.10;99.90;;;;;;4985850;28;20180;-85
2023/10/13 09:14:48;;;;;;;25.98;14.90;;;17.10;99.90;;;;;;4996003;28;20128;-82
2023/10/13 09:17:34;;;;;;;26.58;14.82;;;17.20;99.90;;;;;;5003067;28;20180;-85
2023/10/13 09:25:38;;;;;;;18.73;12.10;;;17.40;99.90;;;;;;5012322;28;20050;-84
2023/10/13 09:28:14;;;;;;;16.33;9.80;;;17.40;99.90;;;;;;5012532;28;20042;-83
2023/10/13 09:30:56;;;;;;;18.27;10.35;;;17.50;99.90;;;;;;4995605;28;20540;-87
2023/10/13 09:33:35;;;;;;;13.43;8.80;;;17.50;99.90;;;;;;4996037;28;20385;-82
2023/10/13 09:36:04;;;;;;;20.88;9.68;;;17.60;99.90;;;;;;5011847;28;20081;-82
2023/10/13 09:38:33;;;;;;;15.65;9.52;;;17.60;99.90;;;;;;4995924;28;20076;-83
2023/10/13 09:41:17;;;;;;;16.38;9.80;;;17.70;99.90;;;;;;4999427;28;20493;-81
2023/10/13 09:43:44;;;;;;;19.77;9.50;;;17.70;99.90;;;;;;4979095;28;20042;-84
2023/10/13 09:46:17;;;;;;;19.58;10.60;;;17.70;99.90;;;;;;5012163;28;20038;-82
2023/10/13 09:48:47;;;;;;;15.50;9.88;;;17.70;99.90;;;;;;4995795;28;20088;-80
2023/10/13 09:51:19;;;;;;;20.42;10.77;;;17.70;99.90;;;;;;4995797;28;20038;-79
2023/10/13 09:54:09;;;;;;;22.08;10.63;;;17.70;99.90;;;;;;4980361;28;20050;-80
2023/10/13 09:56:57;;;;;;;18.80;10.05;;;17.70;99.90;;;;;;5011380;28;20497;-80
2023/10/13 09:59:34;;;;;;;16.63;9.07;;;17.70;99.90;;;;;;4994679;28;20081;-83
2023/10/13 10:02:08;;;;;;;15.68;9.05;;;17.70;99.90;;;;;;5011796;28;20042;-82
2023/10/13 10:04:44;;;;;;;15.82;8.32;;;17.70;99.90;;;;;;5008105;28;20088;-79
2023/10/13 10:07:11;;;;;;;21.55;8.98;;;17.70;99.90;;;;;;4998063;28;20046;-81
2023/10/13 10:09:39;;;;;;;23.10;9.68;;;17.70;99.90;;;;;;5009284;28;20033;-77
2023/10/13 10:12:51;;;;;;;18.23;9.77;;;17.80;99.90;;;;;;5005230;28;20042;-81
2023/10/13 10:15:35;;;;;;;20.30;8.68;;;17.80;99.90;;;;;;4967524;28;20055;-79
2023/10/13 10:18:04;;;;;;;12.32;8.23;;;17.80;99.90;;;;;;4978862;28;20100;-79
2023/10/13 10:20:43;;;;;;;17.23;9.45;;;17.90;99.90;;;;;;4992429;28;20073;-79
2023/10/13 10:23:21;;;;;;;20.80;9.32;;;17.90;99.90;;;;;;4978993;28;20034;-79
2023/10/13 10:25:51;;;;;;;18.20;8.90;;;17.90;99.90;;;;;;4981806;28;20046;-80
2023/10/13 10:28:19;;;;;;;16.02;8.00;;;18.00;99.90;;;;;;5005751;28;20038;-78
2023/10/13 10:30:45;;;;;;;18.83;8.88;;;18.00;99.90;;;;;;5010499;28;20053;-79
2023/10/13 10:33:12;;;;;;;16.25;8.55;;;18.00;99.90;;;;;;5007326;28;20038;-80
2023/10/13 10:35:46;;;;;;;16.38;8.68;;;18.10;99.90;;;;;;5008573;28;20096;-80
2023/10/13 10:41:06;;;;;;;12.82;9.13;;;18.10;99.90;;;;;;4995116;28;20034;-79
2023/10/13 10:43:45;;;;;;;21.42;8.80;;;18.20;99.90;;;;;;4979244;28;20038;-78
2023/10/13 10:46:17;;;;;;;14.50;8.40;;;18.20;99.90;;;;;;5010830;28;20041;-77
2023/10/13 10:48:43;;;;;;;16.50;8.30;;;18.30;99.90;;;;;;4994578;28;20064;-78
2023/10/13 10:51:21;;;;;;;18.20;8.80;;;18.30;99.90;;;;;;4994725;28;20034;-80
2023/10/13 10:53:52;;;;;;;19.38;8.95;;;18.30;99.90;;;;;;4976176;28;20039;-77
2023/10/13 10:59:01;;;;;;;17.23;8.93;;;18.40;99.90;;;;;;5010607;28;20060;-76
2023/10/13 11:01:38;;;;;;;22.63;7.85;;;18.60;99.90;;;;;;5010571;28;20046;-78
2023/10/13 11:04:14;;;;;;;17.02;7.70;;;18.60;99.90;;;;;;5010891;28;20124;-78
2023/10/13 11:06:55;;;;;;;17.42;8.23;;;18.60;99.90;;;;;;5010845;28;20128;-80
2023/10/13 11:12:14;;;;;;;16.92;7.35;;;18.60;99.90;;;;;;5010121;28;20046;-79
2023/10/13 11:14:48;;;;;;;14.68;6.75;;;18.60;99.90;;;;;;5008666;28;20041;-79
2023/10/13 11:17:25;;;;;;;16.83;7.68;;;18.60;99.90;;;;;;4979068;28;20041;-79
2023/10/13 11:19:51;;;;;;;19.60;8.10;;;18.60;99.90;;;;;;4980709;28;20512;-78
2023/10/13 11:25:35;;;;;;;14.68;7.57;;;18.60;99.90;;;;;;4959266;28;20050;-75
2023/10/13 11:28:19;;;;;;;16.90;7.68;;;18.60;99.90;;;;;;5000656;28;20096;-79
2023/10/13 11:30:49;;;;;;;16.88;8.10;;;18.60;99.90;;;;;;4994365;28;20073;-78
2023/10/13 11:33:23;;;;;;;18.40;7.65;;;18.60;99.90;;;;;;5010882;28;20116;-78
2023/10/13 11:35:55;;;;;;;16.65;7.80;;;18.60;99.90;;;;;;4979054;28;20038;-78
2023/10/13 11:38:43;;;;;;;18.17;8.10;;;18.60;99.90;;;;;;5010860;28;20386;-81
2023/10/13 11:41:12;;;;;;;18.30;7.25;;;18.60;99.90;;;;;;4981648;28;20046;-79
2023/10/13 11:51:48;;;;;;;15.02;7.95;;;18.90;99.90;;;;;;4999828;28;20115;-81
2023/10/13 11:54:15;;;;;;;17.05;8.25;;;19.00;99.90;;;;;;5014233;28;20034;-79
2023/10/13 11:56:42;;;;;;;16.10;7.18;;;19.10;99.90;;;;;;4997354;28;20038;-77
2023/10/13 11:59:15;;;;;;;17.08;7.32;;;19.10;99.90;;;;;;4997457;28;20133;-77
2023/10/13 12:04:54;;;;;;;14.43;7.22;;;19.10;99.90;;;;;;5013599;28;20516;-78
2023/10/13 12:07:23;;;;;;;12.00;7.10;;;19.10;99.90;;;;;;5013939;28;20413;-78
2023/10/13 12:12:27;;;;;;;19.80;8.32;;;19.10;99.90;;;;;;5013399;28;20121;-78
2023/10/13 12:14:57;;;;;;;13.75;7.72;;;19.10;99.90;;;;;;4997016;28;20033;-81
2023/10/13 12:17:28;;;;;;;17.92;7.72;;;19.00;99.90;;;;;;4997553;28;20048;-80
2023/10/13 12:19:57;;;;;;;20.25;8.23;;;19.00;99.90;;;;;;4997098;28;20037;-80
2023/10/13 12:22:35;;;;;;;18.25;7.70;;;19.00;99.90;;;;;;5013274;28;20046;-80
2023/10/13 12:25:05;;;;;;;16.17;7.47;;;18.90;99.90;;;;;;5012686;28;20574;-80
2023/10/13 12:27:45;;;;;;;15.02;7.78;;;18.90;99.90;;;;;;4997229;28;20320;-80
2023/10/13 12:30:22;;;;;;;16.23;8.35;;;18.90;99.90;;;;;;4998739;28;20477;-80
2023/10/13 12:33:10;;;;;;;15.05;7.35;;;18.90;99.90;;;;;;4996953;28;20034;-80
2023/10/13 12:35:58;;;;;;;14.80;6.90;;;19.00;99.90;;;;;;5012688;28;20104;-79
2023/10/13 12:38:37;;;;;;;18.52;7.35;;;19.00;99.90;;;;;;5013376;28;20413;-78
2023/10/13 12:52:02;;;;;;;17.52;8.35;;;19.10;99.90;;;;;;5012682;28;20057;-80
2023/10/13 12:54:35;;;;;;;19.08;8.32;;;19.10;99.90;;;;;;5012156;28;20071;-79
2023/10/13 12:57:02;;;;;;;19.02;7.88;;;19.10;99.90;;;;;;5012827;28;20113;-78
2023/10/13 12:59:28;;;;;;;15.35;8.27;;;19.20;99.90;;;;;;5012485;28;20489;-78
2023/10/13 13:01:54;;;;;;;17.35;8.20;;;19.20;99.90;;;;;;4995690;28;20120;-78
2023/10/13 13:04:20;;;;;;;13.05;8.00;;;19.20;99.90;;;;;;4996260;28;20413;-78
2023/10/13 13:06:47;;;;;;;17.83;8.02;;;19.20;99.90;;;;;;5012525;28;20088;-79
2023/10/13 13:09:13;;;;;;;15.13;7.90;;;19.20;99.90;;;;;;5012594;28;20046;-79
2023/10/13 13:11:42;;;;;;;14.10;6.63;;;19.20;99.90;;;;;;4995577;28;20405;-79
2023/10/13 13:14:08;;;;;;;14.82;8.15;;;19.30;99.90;;;;;;4977090;28;20073;-79
2023/10/13 13:16:35;;;;;;;16.85;7.95;;;19.20;99.90;;;;;;5011096;28;20073;-77
2023/10/13 13:19:09;;;;;;;16.73;7.70;;;19.30;99.90;;;;;;5012202;28;20528;-81
2023/10/13 13:21:38;;;;;;;17.92;7.72;;;19.30;99.90;;;;;;5011961;28;20408;-78
2023/10/13 13:24:10;;;;;;;23.02;7.93;;;19.30;99.90;;;;;;5012216;28;20044;-77
2023/10/13 13:26:40;;;;;;;19.23;8.43;;;19.40;99.90;;;;;;4996732;28;20080;-76
2023/10/13 13:29:09;;;;;;;19.05;7.95;;;19.40;99.90;;;;;;5012601;28;20889;-80
2023/10/13 13:31:41;;;;;;;16.88;7.72;;;19.50;99.90;;;;;;5012082;28;20037;-78
2023/10/13 13:34:12;;;;;;;19.02;7.57;;;19.50;99.90;;;;;;4995975;28;20378;-79
2023/10/13 13:36:43;;;;;;;17.23;7.67;;;19.50;99.90;;;;;;4995010;28;20044;-77
2023/10/13 13:39:10;;;;;;;16.80;7.93;;;19.50;99.90;;;;;;4996017;28;20439;-79
2023/10/13 13:41:36;;;;;;;17.55;8.10;;;19.50;99.90;;;;;;5011339;28;20049;-79
2023/10/13 13:46:56;;;;;;;17.17;8.18;;;19.60;99.90;;;;;;4976730;28;20176;-79
2023/10/13 13:49:29;;;;;;;17.67;7.45;;;19.60;99.90;;;;;;4994594;28;20042;-78
2023/10/13 13:51:56;;;;;;;15.45;7.30;;;19.60;99.90;;;;;;5011497;28;20053;-79
2023/10/13 13:54:22;;;;;;;17.67;7.57;;;19.70;99.90;;;;;;4979276;28;20048;-79
2023/10/13 13:56:47;;;;;;;17.73;8.27;;;19.60;99.90;;;;;;5011596;28;20061;-79
2023/10/13 13:59:19;;;;;;;14.13;8.00;;;19.50;99.90;;;;;;5011767;28;20049;-79
2023/10/13 14:01:45;;;;;;;19.23;8.65;;;19.40;99.90;;;;;;5011579;28;20084;-79
2023/10/13 14:04:14;;;;;;;22.65;8.35;;;19.30;99.90;;;;;;4979463;28;20076;-79
2023/10/13 14:06:39;;;;;;;17.35;7.50;;;19.10;99.90;;;;;;4994672;28;20042;-79
2023/10/13 14:09:14;;;;;;;16.67;8.65;;;19.00;99.90;;;;;;5011840;28;20508;-79
2023/10/13 14:14:13;;;;;;;20.98;9.05;;;18.80;99.90;;;;;;5011097;28;20046;-78
2023/10/13 14:16:47;;;;;;;13.05;8.60;;;18.80;99.90;;;;;;4994939;28;20116;-80
2023/10/13 14:19:28;;;;;;;18.73;9.00;;;18.70;99.90;;;;;;4994953;28;20042;-79
2023/10/13 14:21:58;;;;;;;18.98;8.95;;;18.60;99.90;;;;;;5011175;28;20044;-80
2023/10/13 14:24:32;;;;;;;16.83;9.35;;;18.50;99.90;;;;;;5011335;28;20041;-77
2023/10/13 14:27:07;;;;;;;24.63;9.70;;;18.50;99.90;;;;;;5011144;28;20080;-78
2023/10/13 14:29:44;;;;;;;20.35;10.27;;;18.40;99.90;;;;;;5011257;28;20077;-79
2023/10/13 14:32:13;;;;;;;17.23;8.93;;;18.40;99.90;;;;;;5011444;28;20440;-78
2023/10/13 14:34:43;;;;;;;24.05;9.65;;;18.40;99.90;;;;;;5011195;28;20046;-79
2023/10/13 14:37:26;;;;;;;18.50;9.77;;;18.40;99.90;;;;;;4994527;28;20493;-78
2023/10/13 14:39:58;;;;;;;16.13;8.93;;;18.30;99.90;;;;;;5011981;28;20120;-78
2023/10/13 14:42:28;;;;;;;17.30;9.18;;;18.30;99.90;;;;;;5011238;28;20473;-77
2023/10/13 14:44:57;;;;;;;22.58;9.77;;;18.30;99.90;;;;;;4994617;28;20050;-78
2023/10/13 14:47:26;;;;;;;14.77;9.77;;;18.30;99.90;;;;;;5010899;28;20050;-78
2023/10/13 14:49:59;;;;;;;18.20;9.25;;;18.30;99.90;;;;;;4994632;28;20045;-78
2023/10/13 14:52:25;;;;;;;19.20;9.18;;;18.40;99.90;;;;;;5011009;28;20054;-79
2023/10/13 14:54:57;;;;;;;18.58;9.10;;;18.40;99.90;;;;;;4995013;28;20030;-80
2023/10/13 14:57:27;;;;;;;19.30;8.82;;;18.40;99.90;;;;;;4994457;28;20041;-79
2023/10/13 14:59:57;;;;;;;22.23;9.27;;;18.40;99.90;;;;;;5011046;28;20038;-80
2023/10/13 15:02:23;;;;;;;16.20;8.57;;;18.40;99.90;;;;;;4978528;28;20034;-76
2023/10/13 15:04:49;;;;;;;21.35;10.43;;;18.40;99.90;;;;;;5010802;28;20037;-77
2023/10/13 15:07:17;;;;;;;20.60;9.55;;;18.40;99.90;;;;;;4994424;28;20030;-77
2023/10/13 15:09:43;;;;;;;17.80;10.10;;;18.30;99.90;;;;;;4978411;28;20052;-79
2023/10/13 15:12:13;;;;;;;20.90;10.98;;;18.20;99.90;;;;;;5010587;28;20061;-77
2023/10/13 15:14:42;;;;;;;27.75;11.00;;;18.00;99.90;;;;;;4978559;28;20096;-76
2023/10/13 15:17:09;;;;;;;19.80;11.43;;;18.00;99.90;;;;;;5011273;28;20447;-77
2023/10/13 15:19:38;;;;;;;21.58;11.85;;;17.90;99.90;;;;;;4998168;28;20046;-76
2023/10/13 15:22:06;;;;;;;22.80;11.70;;;17.80;99.90;;;;;;5014410;28;20038;-76
2023/10/13 15:24:41;;;;;;;20.58;11.55;;;17.70;99.90;;;;;;5014420;28;20046;-76
2023/10/13 15:27:08;;;;;;;23.77;11.65;;;17.60;99.90;;;;;;5013763;28;20120;-78
2023/10/13 15:29:37;;;;;;;19.05;11.18;;;17.60;99.90;;;;;;4998398;28;20511;-79
2023/10/13 15:32:41;;;;;;;20.67;12.13;;;17.60;99.90;;;;;;4998624;28;20528;-76
2023/10/13 15:34:50;;;;;;;22.70;12.07;;;17.60;99.90;;;;;;5005996;28;20045;-76
2023/10/13 15:37:16;;;;;;;19.10;12.32;;;17.50;99.90;;;;;;5014073;28;20038;-77
2023/10/13 15:39:41;;;;;;;23.40;11.68;;;17.40;99.90;;;;;;4971266;28;20042;-77
2023/10/13 15:42:09;;;;;;;21.75;12.52;;;17.40;99.90;;;;;;5013899;28;20037;-75
2023/10/13 15:44:35;;;;;;;21.20;11.95;;;17.40;99.90;;;;;;5014111;28;20038;-77
2023/10/13 15:47:01;;;;;;;18.20;11.00;;;17.40;99.90;;;;;;5014212;28;20042;-76
2023/10/13 15:49:29;;;;;;;26.40;11.88;;;17.40;99.90;;;;;;5014225;28;20501;-79
2023/10/13 15:51:57;;;;;;;22.50;13.27;;;17.40;99.90;;;;;;5013930;28;20070;-79
2023/10/13 15:54:23;;;;;;;24.20;11.82;;;17.30;99.90;;;;;;4982023;28;20034;-78
2023/10/13 15:56:54;;;;;;;24.65;12.13;;;17.30;99.90;;;;;;4981375;28;20042;-79
2023/10/13 15:59:22;;;;;;;20.90;11.98;;;17.30;99.90;;;;;;5013905;28;20469;-78
2023/10/13 16:01:54;;;;;;;23.38;10.98;;;17.30;99.90;;;;;;5013914;28;20133;-78
2023/10/13 16:04:20;;;;;;;25.33;11.00;;;17.30;99.90;;;;;;4996939;28;20038;-76
2023/10/13 16:06:47;;;;;;;24.25;10.90;;;17.40;99.90;;;;;;4997379;28;20516;-77
2023/10/13 16:09:25;;;;;;;21.42;9.75;;;17.30;99.90;;;;;;5013563;28;20042;-78
2023/10/13 16:11:52;;;;;;;21.65;10.95;;;17.40;99.90;;;;;;4996907;28;20046;-78
2023/10/13 16:14:18;;;;;;;23.00;10.95;;;17.30;99.90;;;;;;4977902;28;20489;-77
2023/10/13 16:16:49;;;;;;;16.55;10.70;;;17.30;99.90;;;;;;5013581;28;20057;-77
2023/10/13 16:19:25;;;;;;;17.20;9.68;;;17.30;99.90;;;;;;4981166;28;20126;-75
2023/10/13 16:21:53;;;;;;;19.05;10.02;;;17.30;99.90;;;;;;4993097;28;20567;-76
2023/10/13 16:24:19;;;;;;;22.02;11.68;;;17.30;99.90;;;;;;4996945;28;20124;-77
2023/10/13 16:26:52;;;;;;;19.20;12.20;;;17.30;99.90;;;;;;5013596;28;20504;-76
2023/10/13 16:29:18;;;;;;;17.02;10.93;;;17.30;99.90;;;;;;5012694;28;20536;-77
2023/10/13 16:31:45;;;;;;;20.73;11.95;;;17.30;99.90;;;;;;4998064;28;20038;-76
2023/10/13 16:34:18;;;;;;;20.38;12.10;;;17.30;99.90;;;;;;4999944;28;20572;-77
2023/10/13 16:36:48;;;;;;;19.05;10.93;;;17.20;99.90;;;;;;4998826;28;20451;-76
2023/10/13 16:39:15;;;;;;;25.23;12.75;;;17.20;99.90;;;;;;5013349;28;20041;-77
2023/10/13 16:41:44;;;;;;;21.98;12.25;;;17.20;99.90;;;;;;5012896;28;20523;-77
2023/10/13 16:44:09;;;;;;;25.27;12.82;;;17.20;99.90;;;;;;5012765;28;20515;-77
2023/10/13 16:46:39;;;;;;;24.15;11.25;;;17.20;99.90;;;;;;4996790;28;20041;-79
2023/10/13 16:49:06;;;;;;;24.58;11.88;;;17.20;99.90;;;;;;5012613;28;20850;-77
2023/10/13 16:51:33;;;;;;;24.27;13.52;;;17.20;99.90;;;;;;5012839;28;20045;-77